createdAt,value
2018-01-05T00:00:51.536Z,326.75
2018-01-05T00:03:20.333Z,246.30
2018-01-05T00:05:47.927Z,318.85
2018-01-05T00:08:15.602Z,376.02
2018-01-05T00:10:43.515Z,407.40
2018-01-05T00:13:12.115Z,426.30
2018-01-05T00:15:39.773Z,436.05
2018-01-05T00:18:07.392Z,433.20
2018-01-05T00:20:35.051Z,424.35
2018-01-05T00:23:02.689Z,397.20
2018-01-05T00:25:30.858Z,329.33
2018-01-05T00:27:58.735Z,345.12
2018-01-05T00:30:26.532Z,285.15
2018-01-05T00:32:54.156Z,308.42
2018-01-05T00:35:21.933Z,249.25
2018-01-05T00:37:49.604Z,232.23
2018-01-05T00:40:17.219Z,218.20
2018-01-05T00:42:45.211Z,214.25
2018-01-05T00:45:12.892Z,243.20
2018-01-05T00:47:41.030Z,242.77
2018-01-05T00:50:09.739Z,206.10
2018-01-05T00:52:37.464Z,210.52
2018-01-05T00:55:05.382Z,224.37
2018-01-05T00:57:33.543Z,262.77
2018-01-05T01:00:01.654Z,281.77
2018-01-05T01:02:29.562Z,271.98
2018-01-05T01:04:58.055Z,251.52
2018-01-05T01:07:25.685Z,232.95
2018-01-05T01:09:53.351Z,217.27
2018-01-05T01:12:21.491Z,224.00
2018-01-05T01:14:49.191Z,212.00
2018-01-05T01:17:16.839Z,223.52
2018-01-05T01:19:44.838Z,168.07
2018-01-05T01:22:13.331Z,205.25
2018-01-05T01:24:41.591Z,176.10
2018-01-05T01:27:09.168Z,203.93
2018-01-05T01:29:36.775Z,222.65
2018-01-05T01:32:04.404Z,225.68
2018-01-05T01:34:32.135Z,241.60
2018-01-05T01:36:59.733Z,226.27
2018-01-05T01:39:27.315Z,224.50
2018-01-05T01:41:55.146Z,209.40
2018-01-05T01:44:22.857Z,181.98
2018-01-05T01:46:50.462Z,164.57
2018-01-05T01:49:18.032Z,148.65
2018-01-05T01:51:45.694Z,146.90
2018-01-05T01:54:13.325Z,144.35
2018-01-05T01:56:41.166Z,130.93
2018-01-05T01:59:08.956Z,115.00
2018-01-05T02:01:36.579Z,81.32
2018-01-05T02:04:05.087Z,88.72
2018-01-05T02:06:32.883Z,91.57
2018-01-05T02:09:00.768Z,85.05
2018-01-05T02:11:28.426Z,88.82
2018-01-05T02:13:56.015Z,70.55
2018-01-05T02:16:23.703Z,73.25
2018-01-05T02:18:51.294Z,67.57
2018-01-05T02:21:18.861Z,79.57
2018-01-05T02:23:46.517Z,64.53
2018-01-05T02:26:14.806Z,82.60
2018-01-05T02:28:42.436Z,72.68
2018-01-05T02:31:10.053Z,94.07
2018-01-05T02:33:37.868Z,83.25
2018-01-05T02:36:05.442Z,79.57
2018-01-05T02:38:33.029Z,85.80
2018-01-05T02:41:02.290Z,95.30
2018-01-05T02:43:29.945Z,79.70
2018-01-05T02:45:58.026Z,98.43
2018-01-05T02:48:26.517Z,96.43
2018-01-05T02:50:55.075Z,92.12
2018-01-05T02:53:22.743Z,90.65
2018-01-05T02:55:50.355Z,135.02
2018-01-05T02:58:18.114Z,140.27
2018-01-05T03:00:45.895Z,110.40
2018-01-05T03:03:13.794Z,152.95
2018-01-05T03:05:41.671Z,140.05
2018-01-05T03:08:09.329Z,113.60
2018-01-05T03:10:37.276Z,104.25
2018-01-05T03:13:04.871Z,90.75
2018-01-05T03:15:32.943Z,80.87
2018-01-05T03:18:01.128Z,107.43
2018-01-05T03:20:29.287Z,94.15
2018-01-05T03:22:57.008Z,100.93
2018-01-05T03:25:24.846Z,101.90
2018-01-05T03:27:52.458Z,82.50
2018-01-05T03:30:20.053Z,82.97
2018-01-05T03:32:48.600Z,96.12
2018-01-05T03:35:16.415Z,102.82
2018-01-05T03:37:44.027Z,99.50
2018-01-05T03:40:11.791Z,85.87
2018-01-05T03:42:39.547Z,99.82
2018-01-05T03:45:07.364Z,96.63
2018-01-05T03:47:35.839Z,108.40
2018-01-05T03:50:03.498Z,94.97
2018-01-05T03:52:31.165Z,92.10
2018-01-05T03:54:58.807Z,82.50
2018-01-05T03:57:26.598Z,98.43
2018-01-05T03:59:54.290Z,87.45
2018-01-05T04:02:21.926Z,89.40
2018-01-05T04:04:49.608Z,96.57
2018-01-05T04:07:17.582Z,79.87
2018-01-05T04:09:45.223Z,83.10
2018-01-05T04:12:12.784Z,82.25
2018-01-05T04:14:40.376Z,80.35
2018-01-05T04:17:07.993Z,89.85
2018-01-05T04:19:35.801Z,97.90
2018-01-05T04:22:03.647Z,100.80
2018-01-05T04:24:32.984Z,84.72
2018-01-05T04:27:01.320Z,83.40
2018-01-05T04:29:29.468Z,90.40
2018-01-05T04:31:57.138Z,77.15
2018-01-05T04:34:24.763Z,58.90
2018-01-05T04:36:52.673Z,51.78
2018-01-05T04:39:20.533Z,49.53
2018-01-05T04:41:48.317Z,56.03
2018-01-05T04:44:15.930Z,60.17
2018-01-05T04:46:43.596Z,61.08
2018-01-05T04:49:11.824Z,48.70
2018-01-05T04:51:39.461Z,54.35
2018-01-05T04:54:07.106Z,50.05
2018-01-05T04:56:34.709Z,53.90
2018-01-05T04:59:02.944Z,51.45
2018-01-05T05:01:30.602Z,55.80
2018-01-05T05:03:59.219Z,50.10
2018-01-05T05:06:26.853Z,60.55
2018-01-05T05:08:54.568Z,52.75
2018-01-05T05:11:22.245Z,53.25
2018-01-05T05:13:50.803Z,40.92
2018-01-05T05:16:18.488Z,48.13
2018-01-05T05:18:46.152Z,52.08
2018-01-05T05:21:13.841Z,48.08
2018-01-05T05:23:41.846Z,47.70
2018-01-05T05:26:09.640Z,42.97
2018-01-05T05:28:37.281Z,61.28
2018-01-05T05:31:04.938Z,151.68
2018-01-05T05:33:32.590Z,70.12
2018-01-05T05:36:00.361Z,62.28
2018-01-05T05:38:27.998Z,64.40
2018-01-05T05:40:55.768Z,53.95
2018-01-05T05:43:24.333Z,75.72
2018-01-05T05:45:52.682Z,56.17
2018-01-05T05:48:20.261Z,64.03
2018-01-05T05:50:47.945Z,71.80
2018-01-05T05:53:15.574Z,144.27
2018-01-05T05:55:43.264Z,141.00
2018-01-05T05:58:10.872Z,122.07
2018-01-05T06:00:38.510Z,114.00
2018-01-05T06:03:06.150Z,157.80
2018-01-05T06:05:33.759Z,138.12
2018-01-05T06:08:01.385Z,129.63
2018-01-05T06:10:29.202Z,164.62
2018-01-05T06:12:56.840Z,110.35
2018-01-05T06:15:24.430Z,95.75
2018-01-05T06:17:52.176Z,138.52
2018-01-05T06:20:19.774Z,129.05
2018-01-05T06:22:47.438Z,102.15
2018-01-05T06:25:15.552Z,138.85
2018-01-05T06:27:43.232Z,104.20
2018-01-05T06:30:10.988Z,113.28
2018-01-05T06:32:38.802Z,124.03
2018-01-05T06:35:06.392Z,108.87
2018-01-05T06:37:35.213Z,115.88
2018-01-05T06:40:02.887Z,118.90
2018-01-05T06:42:30.535Z,117.87
2018-01-05T06:44:58.209Z,128.95
2018-01-05T06:47:25.824Z,142.68
2018-01-05T06:49:53.457Z,130.37
2018-01-05T06:52:21.079Z,117.50
2018-01-05T06:54:49.558Z,141.07
2018-01-05T06:57:17.214Z,131.43
2018-01-05T06:59:44.849Z,119.70
2018-01-05T07:02:12.625Z,113.78
2018-01-05T07:04:40.199Z,105.72
2018-01-05T07:07:07.859Z,106.03
2018-01-05T07:09:35.471Z,109.10
2018-01-05T07:12:03.185Z,106.65
2018-01-05T07:14:30.994Z,124.18
2018-01-05T07:16:59.489Z,125.93
2018-01-05T07:19:27.824Z,125.45
2018-01-05T07:21:55.478Z,142.35
2018-01-05T07:24:23.103Z,150.87
2018-01-05T07:26:50.888Z,133.77
2018-01-05T07:29:18.545Z,138.50
2018-01-05T07:31:47.461Z,68.43
2018-01-05T07:34:15.114Z,64.40
2018-01-05T07:36:42.736Z,76.10
2018-01-05T07:39:10.414Z,87.03
2018-01-05T07:41:38.013Z,71.68
2018-01-05T07:44:05.710Z,78.15
2018-01-05T07:46:34.286Z,102.97
2018-01-05T07:49:01.873Z,73.00
2018-01-05T07:51:29.458Z,77.47
2018-01-05T07:53:57.351Z,78.45
2018-01-05T07:56:24.950Z,70.45
2018-01-05T07:58:52.569Z,73.37
2018-01-05T08:01:20.187Z,64.87
2018-01-05T08:03:47.806Z,65.95
2018-01-05T08:06:15.420Z,63.67
2018-01-05T08:08:43.048Z,76.65
2018-01-05T08:11:10.685Z,66.25
2018-01-05T08:13:38.301Z,84.57
2018-01-05T08:16:05.962Z,72.75
2018-01-05T08:18:33.767Z,73.00
2018-01-05T08:21:01.408Z,62.90
2018-01-05T08:23:29.136Z,80.50
2018-01-05T08:25:57.326Z,83.25
2018-01-05T08:28:25.891Z,69.03
2018-01-05T08:30:53.748Z,77.40
2018-01-05T08:33:21.412Z,82.20
2018-01-05T08:35:49.117Z,78.40
2018-01-05T08:38:16.737Z,84.05
2018-01-05T08:40:44.296Z,72.50
2018-01-05T08:43:11.906Z,85.80
2018-01-05T08:45:40.387Z,89.78
2018-01-05T08:48:08.181Z,92.10
2018-01-05T08:50:35.769Z,80.35
2018-01-05T08:53:04.119Z,101.97
2018-01-05T08:55:32.709Z,102.18
2018-01-05T08:58:00.312Z,96.72
2018-01-05T09:00:29.758Z,107.75
2018-01-05T09:02:57.657Z,102.28
2018-01-05T09:05:25.445Z,108.30
2018-01-05T09:07:53.238Z,124.12
2018-01-05T09:10:20.906Z,130.30
2018-01-05T09:12:48.486Z,131.55
2018-01-05T09:15:16.099Z,130.48
2018-01-05T09:17:44.633Z,123.78
2018-01-05T09:20:13.069Z,120.80
2018-01-05T09:22:41.596Z,111.00
2018-01-05T09:25:09.264Z,105.95
2018-01-05T09:27:37.060Z,115.10
2018-01-05T09:30:08.553Z,118.82
2018-01-05T09:32:36.212Z,118.70
2018-01-05T09:35:03.904Z,122.40
2018-01-05T09:37:31.588Z,137.18
2018-01-05T09:39:59.256Z,116.00
2018-01-05T09:42:27.023Z,114.03
2018-01-05T09:44:55.164Z,118.07
2018-01-05T09:47:23.671Z,112.35
2018-01-05T09:49:52.009Z,121.20
2018-01-05T09:52:19.859Z,104.03
2018-01-05T09:54:47.477Z,111.23
2018-01-05T09:57:15.098Z,111.00
2018-01-05T09:59:43.707Z,101.67
2018-01-05T10:04:58.319Z,141.97
2018-01-05T10:07:26.649Z,117.17
2018-01-05T10:09:54.288Z,143.17
2018-01-05T10:12:22.211Z,153.03
2018-01-05T10:14:50.051Z,161.27
2018-01-05T10:17:17.683Z,159.90
2018-01-05T10:19:45.278Z,170.75
2018-01-05T10:22:13.082Z,145.33
2018-01-05T10:24:40.705Z,157.80
2018-01-05T10:27:08.358Z,152.80
2018-01-05T10:29:36.049Z,147.97
2018-01-05T10:32:03.689Z,148.13
2018-01-05T10:34:31.247Z,150.47
2018-01-05T10:36:58.934Z,148.53
2018-01-05T10:39:26.629Z,133.00
2018-01-05T10:41:54.509Z,151.83
2018-01-05T10:44:22.113Z,157.83
2018-01-05T10:46:49.783Z,159.23
2018-01-05T10:49:18.366Z,145.00
2018-01-05T10:51:45.993Z,141.03
2018-01-05T10:54:13.700Z,158.50
2018-01-05T10:56:41.340Z,152.53
2018-01-05T10:59:08.997Z,144.23
2018-01-05T11:01:36.648Z,150.40
2018-01-05T11:04:04.297Z,144.53
2018-01-05T11:06:31.915Z,159.13
2018-01-05T11:08:59.646Z,169.87
2018-01-05T11:11:27.331Z,150.17
2018-01-05T11:13:55.933Z,156.63
2018-01-05T11:16:23.603Z,167.70
2018-01-05T11:18:51.209Z,150.30
2018-01-05T11:21:18.873Z,152.03
2018-01-05T11:23:46.530Z,157.60
2018-01-05T11:26:14.184Z,146.07
2018-01-05T11:28:41.788Z,162.63
2018-01-05T11:31:09.443Z,157.13
2018-01-05T11:33:37.081Z,148.07
2018-01-05T11:36:04.665Z,137.77
2018-01-05T11:38:32.291Z,136.90
2018-01-05T11:40:59.908Z,141.07
2018-01-05T11:43:27.714Z,137.80
2018-01-05T11:45:56.306Z,125.97
2018-01-05T11:48:23.882Z,118.93
2018-01-05T11:50:51.489Z,138.50
2018-01-05T11:53:19.191Z,113.30
2018-01-05T11:55:47.042Z,124.13
2018-01-05T11:58:14.629Z,126.27
2018-01-05T12:00:42.286Z,102.70
2018-01-05T12:03:09.993Z,103.87
2018-01-05T12:05:37.593Z,108.77
2018-01-05T12:08:05.299Z,95.87
2018-01-05T12:10:33.514Z,110.63
2018-01-05T12:13:01.132Z,102.17
2018-01-05T12:15:28.718Z,98.10
2018-01-05T12:17:57.073Z,106.67
2018-01-05T12:20:24.894Z,90.87
2018-01-05T12:22:52.566Z,108.73
2018-01-05T12:25:20.392Z,111.23
2018-01-05T12:27:48.063Z,100.87
2018-01-05T12:30:15.738Z,102.10
2018-01-05T12:32:43.358Z,113.87
2018-01-05T12:35:10.953Z,99.70
2018-01-05T12:37:38.786Z,94.23
2018-01-05T12:40:06.388Z,82.40
2018-01-05T12:42:34.023Z,78.70
2018-01-05T12:45:01.674Z,76.13
2018-01-05T12:47:30.212Z,69.83
2018-01-05T12:49:58.777Z,91.97
2018-01-05T12:52:26.533Z,79.23
2018-01-05T12:54:54.145Z,67.67
2018-01-05T12:57:21.757Z,81.53
2018-01-05T12:59:49.463Z,97.00
2018-01-05T13:02:17.089Z,93.27
2018-01-05T13:04:44.728Z,97.97
2018-01-05T13:07:12.511Z,85.60
2018-01-05T13:09:40.136Z,93.90
2018-01-05T13:12:08.328Z,84.60
2018-01-05T13:14:36.853Z,85.57
2018-01-05T13:17:04.552Z,87.43
2018-01-05T13:19:32.211Z,92.13
2018-01-05T13:21:59.864Z,105.03
2018-01-05T13:24:27.672Z,109.27
2018-01-05T13:26:55.349Z,111.40
2018-01-05T13:29:22.952Z,105.60
2018-01-05T13:31:50.666Z,107.63
2018-01-05T13:34:18.288Z,102.97
2018-01-05T13:36:45.885Z,97.30
2018-01-05T13:39:13.549Z,93.90
2018-01-05T13:41:41.224Z,108.63
2018-01-05T13:44:08.873Z,97.37
2018-01-05T13:46:36.722Z,105.00
2018-01-05T13:49:04.406Z,98.60
2018-01-05T13:51:32.132Z,115.33
2018-01-05T13:53:59.843Z,114.63
2018-01-05T13:56:27.494Z,102.53
2018-01-05T13:58:55.135Z,94.50
2018-01-05T14:01:22.868Z,108.27
2018-01-05T14:03:50.504Z,104.00
2018-01-05T14:06:18.114Z,86.50
2018-01-05T14:08:45.818Z,93.43
2018-01-05T14:11:13.488Z,99.73
2018-01-05T14:13:41.387Z,96.63
2018-01-05T14:16:09.010Z,99.47
2018-01-05T14:18:36.583Z,119.83
2018-01-05T14:21:04.486Z,99.50
2018-01-05T14:23:32.150Z,109.30
2018-01-05T14:25:59.754Z,111.17
2018-01-05T14:28:27.333Z,119.10
2018-01-05T14:30:58.782Z,129.63
2018-01-05T14:33:26.691Z,138.80
2018-01-05T14:35:54.395Z,157.47
2018-01-05T14:38:22.108Z,146.82
2018-01-05T14:40:50.238Z,159.30
2018-01-05T14:43:17.882Z,168.60
2018-01-05T14:45:45.930Z,184.63
2018-01-05T14:48:13.722Z,192.27
2018-01-05T14:50:41.534Z,177.73
2018-01-05T14:53:09.316Z,195.93
2018-01-05T14:55:37.279Z,199.90
2018-01-05T14:58:05.021Z,199.27
2018-01-05T15:00:32.689Z,202.77
2018-01-05T15:03:00.354Z,191.10
2018-01-05T15:05:27.967Z,167.57
2018-01-05T15:07:57.486Z,163.90
2018-01-05T15:10:25.888Z,154.27
2018-01-05T15:12:53.637Z,179.57
2018-01-05T15:15:22.892Z,160.67
2018-01-05T15:17:50.612Z,151.55
2018-01-05T15:20:18.376Z,221.65
2018-01-05T15:22:46.131Z,233.55
2018-01-05T15:25:13.972Z,221.90
2018-01-05T15:27:41.743Z,221.68
2018-01-05T15:30:16.025Z,199.45
2018-01-05T15:32:44.022Z,183.60
2018-01-05T15:35:11.949Z,164.98
2018-01-05T15:37:40.567Z,163.12
2018-01-05T15:40:08.217Z,184.63
2018-01-05T15:42:35.847Z,264.95
2018-01-05T15:45:03.539Z,320.05
2018-01-05T15:47:31.155Z,368.85
2018-01-05T15:49:59.082Z,328.88
2018-01-05T15:52:27.262Z,295.70
2018-01-05T15:54:56.103Z,287.00
2018-01-05T15:57:23.752Z,297.45
2018-01-05T15:59:51.509Z,305.30
2018-01-05T16:02:19.229Z,191.02
2018-01-05T16:04:46.845Z,256.75
2018-01-05T16:07:14.826Z,270.50
2018-01-05T16:09:42.478Z,253.40
2018-01-05T16:12:10.111Z,304.48
2018-01-05T16:14:37.737Z,204.23
2018-01-05T16:17:05.345Z,200.68
2018-01-05T16:19:34.446Z,155.32
2018-01-05T16:22:02.675Z,199.95
2018-01-05T16:24:30.406Z,207.70
2018-01-05T16:26:59.275Z,245.80
2018-01-05T16:29:27.041Z,242.35
2018-01-05T16:31:54.755Z,263.45
2018-01-05T16:34:22.358Z,263.37
2018-01-05T16:36:49.922Z,251.20
2018-01-05T16:39:18.409Z,272.85
2018-01-05T16:41:46.017Z,298.92
2018-01-05T16:44:13.576Z,289.70
2018-01-05T16:46:41.174Z,339.40
2018-01-05T16:49:08.746Z,408.58
2018-01-05T16:51:36.360Z,421.05
2018-01-05T16:54:03.942Z,409.23
2018-01-05T16:56:32.702Z,339.60
2018-01-05T16:59:00.981Z,314.58
2018-01-05T17:01:28.590Z,257.00
2018-01-05T17:03:56.326Z,237.82
2018-01-05T17:06:24.658Z,272.70
2018-01-05T17:08:52.330Z,232.48
2018-01-05T17:11:20.244Z,249.98
2018-01-05T17:13:47.880Z,273.13
2018-01-05T17:16:16.373Z,262.42
2018-01-05T17:18:43.946Z,267.40
2018-01-05T17:21:11.583Z,293.50
2018-01-05T17:23:39.374Z,305.30
2018-01-05T17:26:07.028Z,301.77
2018-01-05T17:28:35.180Z,343.92
2018-01-05T17:31:02.853Z,292.83
2018-01-05T17:33:30.430Z,262.42
2018-01-05T17:35:58.060Z,330.77
2018-01-05T17:38:26.600Z,359.98
2018-01-05T17:40:54.670Z,338.75
2018-01-05T17:43:22.285Z,318.35
2018-01-05T17:45:50.477Z,239.23
2018-01-05T17:48:18.157Z,232.25
2018-01-05T17:53:31.963Z,252.57
2018-01-05T17:56:00.750Z,288.83
2018-01-05T18:01:03.668Z,240.35
2018-01-05T18:03:34.098Z,194.23
2018-01-05T18:06:02.012Z,217.90
2018-01-05T18:08:32.969Z,215.87
2018-01-05T18:11:00.600Z,190.27
2018-01-05T18:13:28.264Z,174.68
2018-01-05T18:15:56.119Z,197.48
2018-01-05T18:18:24.791Z,164.48
2018-01-05T18:20:57.273Z,224.80
2018-01-05T18:23:25.406Z,292.10
2018-01-05T18:25:53.736Z,301.20
2018-01-05T18:28:24.367Z,340.95
2018-01-05T18:30:55.557Z,315.12
2018-01-05T18:33:23.416Z,342.58
2018-01-05T18:35:51.154Z,270.25
2018-01-05T18:38:19.614Z,263.45
2018-01-05T18:40:53.546Z,303.98
2018-01-05T18:43:25.676Z,358.25
2018-01-05T18:45:56.110Z,368.23
2018-01-05T18:48:23.755Z,432.00
2018-01-05T18:50:53.172Z,411.92
2018-01-05T18:53:21.182Z,400.77
2018-01-05T18:55:48.796Z,244.07
2018-01-05T18:58:16.457Z,201.93
2018-01-05T19:00:44.369Z,196.48
2018-01-05T19:03:12.253Z,207.43
2018-01-05T19:05:40.652Z,202.43
2018-01-05T19:08:12.552Z,213.05
2018-01-05T19:10:51.026Z,222.43
2018-01-05T19:13:19.142Z,185.70
2018-01-05T19:15:48.182Z,196.25
2018-01-05T19:18:18.853Z,142.23
2018-01-05T19:20:51.951Z,155.52
2018-01-05T19:23:26.510Z,159.70
2018-01-05T19:25:54.277Z,154.87
2018-01-05T19:28:22.084Z,182.62
2018-01-05T19:30:51.881Z,176.52
2018-01-05T19:33:20.962Z,162.45
2018-01-05T19:35:50.865Z,214.55
2018-01-05T19:38:21.467Z,181.45
2018-01-05T19:40:51.294Z,208.90
2018-01-05T19:43:20.383Z,199.05
2018-01-05T19:45:48.100Z,198.07
2018-01-05T19:48:16.801Z,187.80
2018-01-05T19:50:44.879Z,201.88
2018-01-05T19:53:14.587Z,213.15
2018-01-05T19:55:42.166Z,241.48
2018-01-05T19:58:09.931Z,233.93
2018-01-05T20:00:37.901Z,229.55
2018-01-05T20:03:05.600Z,222.68
2018-01-05T20:05:33.248Z,230.90
2018-01-05T20:08:02.182Z,261.58
2018-01-05T20:10:30.024Z,243.73
2018-01-05T20:12:58.392Z,280.62
2018-01-05T20:15:26.132Z,305.95
2018-01-05T20:17:54.612Z,273.52
2018-01-05T20:20:25.116Z,276.70
2018-01-05T20:22:52.811Z,305.48
2018-01-05T20:25:21.265Z,278.95
2018-01-05T20:27:48.953Z,324.92
2018-01-05T20:30:16.624Z,335.13
2018-01-05T20:32:44.565Z,317.42
2018-01-05T20:35:12.169Z,332.95
2018-01-05T20:37:39.936Z,325.83
2018-01-05T20:40:07.574Z,310.17
2018-01-05T20:42:36.073Z,307.87
2018-01-05T20:45:03.833Z,311.90
2018-01-05T20:47:31.509Z,303.92
2018-01-05T20:49:59.823Z,302.02
2018-01-05T20:52:28.255Z,301.58
2018-01-05T20:54:55.849Z,289.73
2018-01-05T20:57:23.654Z,280.87
2018-01-05T20:59:51.400Z,296.67
2018-01-05T21:02:19.055Z,292.90
2018-01-05T21:04:47.555Z,291.85
2018-01-05T21:07:15.250Z,318.90
2018-01-05T21:09:43.395Z,315.30
2018-01-05T21:12:11.070Z,305.20
2018-01-05T21:14:38.705Z,295.02
2018-01-05T21:17:06.484Z,312.08
2018-01-05T21:19:34.520Z,287.90
2018-01-05T21:22:02.143Z,280.58
2018-01-05T21:24:30.024Z,293.17
2018-01-05T21:26:58.367Z,301.90
2018-01-05T21:29:26.386Z,299.12
2018-01-05T21:31:53.996Z,272.88
2018-01-05T21:34:21.649Z,299.92
2018-01-05T21:36:49.487Z,247.85
2018-01-05T21:39:17.296Z,248.27
2018-01-05T21:41:44.918Z,246.55
2018-01-05T21:44:13.592Z,249.82
2018-01-05T21:46:41.206Z,286.17
2018-01-05T21:49:08.983Z,257.65
2018-01-05T21:51:36.655Z,248.77
2018-01-05T21:54:04.307Z,209.82
2018-01-05T21:56:32.106Z,231.15
2018-01-05T21:58:59.709Z,232.00
2018-01-05T22:01:27.354Z,251.20
2018-01-05T22:03:55.178Z,262.70
2018-01-05T22:06:24.029Z,277.13
2018-01-05T22:08:53.230Z,309.45
2018-01-05T22:11:21.666Z,304.85
2018-01-05T22:13:49.377Z,303.30
2018-01-05T22:16:19.171Z,404.00
2018-01-05T22:18:46.862Z,413.70
2018-01-05T22:21:14.606Z,429.42
2018-01-05T22:23:42.541Z,460.77
2018-01-05T22:26:10.403Z,508.73
2018-01-05T22:28:38.412Z,538.40
2018-01-05T22:31:06.991Z,500.77
2018-01-05T22:33:35.508Z,477.10
2018-01-05T22:36:03.166Z,527.70
2018-01-05T22:38:30.876Z,544.47
2018-01-05T22:40:58.514Z,558.38
2018-01-05T22:43:26.289Z,535.53
2018-01-05T22:45:54.713Z,523.75
2018-01-05T22:48:22.504Z,526.35
2018-01-05T22:50:50.063Z,552.97
2018-01-05T22:53:17.681Z,573.13
2018-01-05T22:55:46.131Z,601.85
2018-01-05T22:58:13.861Z,578.33
2018-01-05T23:00:42.254Z,594.95
2018-01-05T23:03:09.872Z,639.83
2018-01-05T23:05:37.529Z,657.65
2018-01-05T23:10:41.057Z,594.47
2018-01-05T23:13:08.833Z,789.20
2018-01-05T23:15:36.607Z,892.05
2018-01-05T23:18:04.184Z,777.33
2018-01-05T23:20:31.942Z,633.17
2018-01-05T23:22:59.630Z,598.90
2018-01-05T23:25:28.542Z,619.20
2018-01-05T23:27:56.710Z,707.88
2018-01-05T23:30:24.538Z,730.37
2018-01-05T23:32:52.332Z,792.33
2018-01-05T23:35:19.940Z,681.30
2018-01-05T23:37:47.932Z,733.55
2018-01-05T23:40:17.221Z,708.92
2018-01-05T23:42:46.460Z,699.78
2018-01-05T23:45:15.077Z,750.05
2018-01-05T23:47:42.859Z,635.72
2018-01-05T23:50:10.529Z,677.88
2018-01-05T23:52:38.317Z,633.45
2018-01-05T23:55:05.906Z,554.80
2018-01-05T23:57:34.063Z,472.90
